createdAt,value
2022-09-26T00:00:54.128Z,86.76
2022-09-26T00:01:54.212Z,86.85
2022-09-26T00:02:54.188Z,86.94
2022-09-26T00:03:54.158Z,87.14
2022-09-26T00:04:54.194Z,87.14
2022-09-26T00:05:54.225Z,86.76
2022-09-26T00:06:54.267Z,86.85
2022-09-26T00:07:54.300Z,86.76
2022-09-26T00:08:54.331Z,86.85
2022-09-26T00:09:54.365Z,86.94
2022-09-26T00:10:54.394Z,86.76
2022-09-26T00:11:54.433Z,86.85
2022-09-26T00:12:54.464Z,86.76
2022-09-26T00:13:54.493Z,86.76
2022-09-26T00:14:54.530Z,86.76
2022-09-26T00:15:54.566Z,86.94
2022-09-26T00:16:54.682Z,86.94
2022-09-26T00:17:54.627Z,86.76
2022-09-26T00:18:54.664Z,86.76
2022-09-26T00:19:54.697Z,86.94
2022-09-26T00:20:54.734Z,86.94
2022-09-26T00:21:54.763Z,86.85
2022-09-26T00:22:54.798Z,87.14
2022-09-26T00:23:54.834Z,86.76
2022-09-26T00:24:54.867Z,87.14
2022-09-26T00:25:54.897Z,86.94
2022-09-26T00:26:54.933Z,87.52
2022-09-26T00:27:54.967Z,87.52
2022-09-26T00:28:55.001Z,87.23
2022-09-26T00:29:55.037Z,86.66
2022-09-26T00:30:55.168Z,87.14
2022-09-26T00:31:55.103Z,87.62
2022-09-26T00:32:55.221Z,87.62
2022-09-26T00:33:55.169Z,87.33
2022-09-26T00:34:55.205Z,87.71
2022-09-26T00:35:55.233Z,87.62
2022-09-26T00:36:55.269Z,87.52
2022-09-26T00:37:55.303Z,87.04
2022-09-26T00:38:55.335Z,87.04
2022-09-26T00:39:55.368Z,87.14
2022-09-26T00:40:55.483Z,87.23
2022-09-26T00:41:55.435Z,87.43
2022-09-26T00:42:55.472Z,87.33
2022-09-26T00:43:55.503Z,87.14
2022-09-26T00:44:55.538Z,87.04
2022-09-26T00:45:55.620Z,87.23
2022-09-26T00:46:55.611Z,87.04
2022-09-26T00:47:55.641Z,87.52
2022-09-26T00:48:55.672Z,87.14
2022-09-26T00:49:55.702Z,87.81
2022-09-26T00:50:55.740Z,87.14
2022-09-26T00:51:55.775Z,87.14
2022-09-26T00:52:55.804Z,87.81
2022-09-26T00:53:55.837Z,87.43
2022-09-26T00:54:55.873Z,87.04
2022-09-26T00:55:55.907Z,87.33
2022-09-26T00:56:55.945Z,87.33
2022-09-26T00:57:55.971Z,87.14
2022-09-26T00:58:56.010Z,87.23
2022-09-26T00:59:56.039Z,87.23
2022-09-26T01:00:56.177Z,87.33
2022-09-26T01:01:56.207Z,87.62
2022-09-26T01:02:56.142Z,87.38
2022-09-26T01:03:56.171Z,87.33
2022-09-26T01:04:56.212Z,87.43
2022-09-26T01:05:56.239Z,87.43
2022-09-26T01:06:56.274Z,87.23
2022-09-26T01:07:56.306Z,87.33
2022-09-26T01:08:56.342Z,87.04
2022-09-26T01:09:56.373Z,87.38
2022-09-26T01:10:56.409Z,87.19
2022-09-26T01:11:56.440Z,87.38
2022-09-26T01:12:56.476Z,87.81
2022-09-26T01:13:56.518Z,87.86
2022-09-26T01:14:56.542Z,87.66
2022-09-26T01:15:56.575Z,88.00
2022-09-26T01:16:56.672Z,87.95
2022-09-26T01:17:56.640Z,87.95
2022-09-26T01:18:56.676Z,87.86
2022-09-26T01:19:56.708Z,87.66
2022-09-26T01:20:56.746Z,87.71
2022-09-26T01:21:56.776Z,87.76
2022-09-26T01:22:56.809Z,88.00
2022-09-26T01:23:56.844Z,87.86
2022-09-26T01:24:56.877Z,88.05
2022-09-26T01:25:56.910Z,87.95
2022-09-26T01:26:56.943Z,87.86
2022-09-26T01:27:56.980Z,88.05
2022-09-26T01:28:57.010Z,87.76
2022-09-26T01:29:57.041Z,87.57
2022-09-26T01:30:57.117Z,87.76
2022-09-26T01:31:57.110Z,87.95
2022-09-26T01:32:57.146Z,87.76
2022-09-26T01:33:57.177Z,88.15
2022-09-26T01:34:57.210Z,87.86
2022-09-26T01:35:57.243Z,87.66
2022-09-26T01:36:57.280Z,87.95
2022-09-26T01:37:57.309Z,87.95
2022-09-26T01:38:57.344Z,88.24
2022-09-26T01:39:57.377Z,88.34
2022-09-26T01:40:57.514Z,88.15
2022-09-26T01:41:57.535Z,88.62
2022-09-26T01:42:57.499Z,88.62
2022-09-26T01:43:57.523Z,87.76
2022-09-26T01:44:57.559Z,87.95
2022-09-26T01:45:57.628Z,87.66
2022-09-26T01:46:57.625Z,87.95
2022-09-26T01:47:57.660Z,87.86
2022-09-26T01:48:57.691Z,87.95
2022-09-26T01:49:57.723Z,88.15
2022-09-26T01:50:57.760Z,88.15
2022-09-26T01:51:57.790Z,88.15
2022-09-26T01:52:57.827Z,88.43
2022-09-26T01:53:57.856Z,88.15
2022-09-26T01:54:57.892Z,87.86
2022-09-26T01:55:57.926Z,88.34
2022-09-26T01:56:57.962Z,88.62
2022-09-26T01:57:57.992Z,88.34
2022-09-26T01:58:58.024Z,87.95
2022-09-26T01:59:58.057Z,88.72
2022-09-26T02:00:58.115Z,88.43
2022-09-26T02:01:58.181Z,88.34
2022-09-26T02:02:58.158Z,88.53
2022-09-26T02:03:58.194Z,88.53
2022-09-26T02:04:58.232Z,88.53
2022-09-26T02:05:58.257Z,88.24
2022-09-26T02:06:58.290Z,88.53
2022-09-26T02:07:58.329Z,88.34
2022-09-26T02:08:58.366Z,88.72
2022-09-26T02:09:58.391Z,88.43
2022-09-26T02:10:58.423Z,88.43
2022-09-26T02:11:58.463Z,88.34
2022-09-26T02:12:58.490Z,88.72
2022-09-26T02:13:58.522Z,88.62
2022-09-26T02:14:58.558Z,88.15
2022-09-26T02:15:58.590Z,88.34
2022-09-26T02:16:58.717Z,88.72
2022-09-26T02:17:58.656Z,88.43
2022-09-26T02:18:58.699Z,88.34
2022-09-26T02:19:58.723Z,88.62
2022-09-26T02:20:58.774Z,88.34
2022-09-26T02:21:58.795Z,88.72
2022-09-26T02:22:58.825Z,88.34
2022-09-26T02:23:58.856Z,88.34
2022-09-26T02:24:58.893Z,88.34
2022-09-26T02:25:58.920Z,88.62
2022-09-26T02:26:58.956Z,88.72
2022-09-26T02:27:58.989Z,88.81
2022-09-26T02:28:59.024Z,88.15
2022-09-26T02:29:59.055Z,88.53
2022-09-26T02:30:59.089Z,88.62
2022-09-26T02:31:59.142Z,88.34
2022-09-26T02:32:59.159Z,88.43
2022-09-26T02:33:59.189Z,88.43
2022-09-26T02:34:59.237Z,88.34
2022-09-26T02:35:59.259Z,88.72
2022-09-26T02:36:59.289Z,88.24
2022-09-26T02:37:59.321Z,88.24
2022-09-26T02:38:59.356Z,88.24
2022-09-26T02:39:59.388Z,88.24
2022-09-26T02:40:59.660Z,88.34
2022-09-26T02:41:59.453Z,88.53
2022-09-26T02:42:59.488Z,88.43
2022-09-26T02:43:59.527Z,88.24
2022-09-26T02:44:59.555Z,88.43
2022-09-26T02:45:59.596Z,88.34
2022-09-26T02:46:59.621Z,88.72
2022-09-26T02:47:59.654Z,88.05
2022-09-26T02:48:59.688Z,88.05
2022-09-26T02:49:59.720Z,88.15
2022-09-26T02:50:59.758Z,88.43
2022-09-26T02:51:59.787Z,88.72
2022-09-26T02:52:59.819Z,88.58
2022-09-26T02:53:59.852Z,88.05
2022-09-26T02:54:59.893Z,88.05
2022-09-26T02:55:59.932Z,88.34
2022-09-26T02:56:59.952Z,88.24
2022-09-26T02:57:59.986Z,88.20
2022-09-26T02:59:00.023Z,88.05
2022-09-26T03:00:00.051Z,88.20
2022-09-26T03:01:00.153Z,88.43
2022-09-26T03:02:00.122Z,88.48
2022-09-26T03:03:00.150Z,88.62
2022-09-26T03:04:00.184Z,88.29
2022-09-26T03:05:00.342Z,88.62
2022-09-26T03:06:00.250Z,88.34
2022-09-26T03:07:00.287Z,88.34
2022-09-26T03:08:00.316Z,88.58
2022-09-26T03:09:00.350Z,88.20
2022-09-26T03:10:00.383Z,88.01
2022-09-26T03:11:00.415Z,88.20
2022-09-26T03:12:00.449Z,88.96
2022-09-26T03:13:00.487Z,88.58
2022-09-26T03:14:00.515Z,88.77
2022-09-26T03:15:00.548Z,88.68
2022-09-26T03:16:00.633Z,88.77
2022-09-26T03:17:00.627Z,87.82
2022-09-26T03:18:00.650Z,88.77
2022-09-26T03:19:00.687Z,88.77
2022-09-26T03:20:00.714Z,88.77
2022-09-26T03:21:00.749Z,88.96
2022-09-26T03:22:00.780Z,88.58
2022-09-26T03:23:00.814Z,88.39
2022-09-26T03:24:00.849Z,88.01
2022-09-26T03:25:00.898Z,88.01
2022-09-26T03:26:00.958Z,88.01
2022-09-26T03:27:00.945Z,88.20
2022-09-26T03:28:00.980Z,88.20
2022-09-26T03:29:01.018Z,88.77
2022-09-26T03:30:01.044Z,88.01
2022-09-26T03:31:01.076Z,88.77
2022-09-26T03:32:01.288Z,87.91
2022-09-26T03:33:01.144Z,88.68
2022-09-26T03:34:01.184Z,88.68
2022-09-26T03:35:01.210Z,88.87
2022-09-26T03:36:01.243Z,88.77
2022-09-26T03:37:01.276Z,88.77
2022-09-26T03:38:01.310Z,88.58
2022-09-26T03:39:01.341Z,88.58
2022-09-26T03:40:01.377Z,88.58
2022-09-26T03:41:01.455Z,88.58
2022-09-26T03:42:01.440Z,88.77
2022-09-26T03:43:01.473Z,89.06
2022-09-26T03:44:01.509Z,88.48
2022-09-26T03:45:01.561Z,88.68
2022-09-26T03:46:01.623Z,88.96
2022-09-26T03:47:01.610Z,88.96
2022-09-26T03:48:01.641Z,89.44
2022-09-26T03:49:01.672Z,89.15
2022-09-26T03:50:01.708Z,88.96
2022-09-26T03:51:01.736Z,89.73
2022-09-26T03:52:01.775Z,89.53
2022-09-26T03:53:01.804Z,89.63
2022-09-26T03:54:01.836Z,89.73
2022-09-26T03:55:01.877Z,89.73
2022-09-26T03:56:01.903Z,89.63
2022-09-26T03:57:01.937Z,89.63
2022-09-26T03:58:01.972Z,89.53
2022-09-26T03:59:02.001Z,89.73
2022-09-26T04:00:02.036Z,89.53
2022-09-26T04:01:02.269Z,89.44
2022-09-26T04:02:02.187Z,90.01
2022-09-26T04:03:02.132Z,89.44
2022-09-26T04:04:02.169Z,89.53
2022-09-26T04:05:02.207Z,89.53
2022-09-26T04:06:02.237Z,89.44
2022-09-26T04:07:02.264Z,89.25
2022-09-26T04:08:02.300Z,89.44
2022-09-26T04:09:02.332Z,89.44
2022-09-26T04:10:02.371Z,89.25
2022-09-26T04:11:02.399Z,89.63
2022-09-26T04:12:02.430Z,89.73
2022-09-26T04:13:02.466Z,90.30
2022-09-26T04:14:02.496Z,89.73
2022-09-26T04:15:02.530Z,89.73
2022-09-26T04:16:02.642Z,89.73
2022-09-26T04:17:02.599Z,89.34
2022-09-26T04:18:02.630Z,89.63
2022-09-26T04:19:02.668Z,89.82
2022-09-26T04:20:02.694Z,89.63
2022-09-26T04:21:04.797Z,89.73
2022-09-26T04:22:02.770Z,89.68
2022-09-26T04:23:02.796Z,89.59
2022-09-26T04:24:02.825Z,89.44
2022-09-26T04:25:02.858Z,89.78
2022-09-26T04:26:02.895Z,90.16
2022-09-26T04:27:02.930Z,90.06
2022-09-26T04:28:02.958Z,90.35
2022-09-26T04:29:02.990Z,89.63
2022-09-26T04:30:03.022Z,89.49
2022-09-26T04:31:03.054Z,89.49
2022-09-26T04:32:03.140Z,89.44
2022-09-26T04:33:03.123Z,89.78
2022-09-26T04:34:03.153Z,89.44
2022-09-26T04:35:03.204Z,89.53
2022-09-26T04:36:03.223Z,89.59
2022-09-26T04:37:03.257Z,89.39
2022-09-26T04:38:03.285Z,89.49
2022-09-26T04:39:03.318Z,89.68
2022-09-26T04:40:03.359Z,89.39
2022-09-26T04:41:03.420Z,89.92
2022-09-26T04:42:03.417Z,89.59
2022-09-26T04:43:03.450Z,89.68
2022-09-26T04:44:03.485Z,89.20
2022-09-26T04:45:03.517Z,89.20
2022-09-26T04:46:03.664Z,89.39
2022-09-26T04:47:03.585Z,89.49
2022-09-26T04:48:03.616Z,89.78
2022-09-26T04:49:03.646Z,89.39
2022-09-26T04:50:03.680Z,89.68
2022-09-26T04:51:03.714Z,89.59
2022-09-26T04:52:03.745Z,89.59
2022-09-26T04:53:03.780Z,89.59
2022-09-26T04:54:03.811Z,89.39
2022-09-26T04:55:03.844Z,89.68
2022-09-26T04:56:03.876Z,89.97
2022-09-26T04:57:03.911Z,89.87
2022-09-26T04:58:03.941Z,89.97
2022-09-26T04:59:03.975Z,90.06
2022-09-26T05:00:04.011Z,89.97
2022-09-26T05:01:04.116Z,90.06
2022-09-26T05:02:04.126Z,90.25
2022-09-26T05:03:04.108Z,89.68
2022-09-26T05:04:04.171Z,89.68
2022-09-26T05:05:04.175Z,89.78
2022-09-26T05:06:04.206Z,89.49
2022-09-26T05:07:04.236Z,89.59
2022-09-26T05:08:04.270Z,89.59
2022-09-26T05:09:04.303Z,90.16
2022-09-26T05:10:04.335Z,89.97
2022-09-26T05:11:04.368Z,90.25
2022-09-26T05:12:04.403Z,90.16
2022-09-26T05:13:04.435Z,90.16
2022-09-26T05:14:04.465Z,89.97
2022-09-26T05:15:04.498Z,89.97
2022-09-26T05:16:04.553Z,90.16
2022-09-26T05:17:04.579Z,89.78
2022-09-26T05:18:04.597Z,89.97
2022-09-26T05:19:04.630Z,90.16
2022-09-26T05:20:04.664Z,89.68
2022-09-26T05:21:04.698Z,90.45
2022-09-26T05:22:04.729Z,90.54
2022-09-26T05:23:04.760Z,90.25
2022-09-26T05:24:04.802Z,90.73
2022-09-26T05:25:04.827Z,90.45
2022-09-26T05:26:04.859Z,90.45
2022-09-26T05:27:04.901Z,90.25
2022-09-26T05:28:04.924Z,90.64
2022-09-26T05:29:08.526Z,90.64
2022-09-26T05:30:04.989Z,91.21
2022-09-26T05:31:05.077Z,90.64
2022-09-26T05:32:05.178Z,90.64
2022-09-26T05:33:05.103Z,91.11
2022-09-26T05:34:05.119Z,90.45
2022-09-26T05:35:05.155Z,91.02
2022-09-26T05:36:05.186Z,91.40
2022-09-26T05:37:05.218Z,91.11
2022-09-26T05:38:05.250Z,90.92
2022-09-26T05:39:05.287Z,91.40
2022-09-26T05:40:05.315Z,91.40
2022-09-26T05:41:05.437Z,91.40
2022-09-26T05:42:05.381Z,91.50
2022-09-26T05:43:05.413Z,91.11
2022-09-26T05:44:05.447Z,91.69
2022-09-26T05:45:05.478Z,91.30
2022-09-26T05:46:05.512Z,92.50
2022-09-26T05:47:05.580Z,91.97
2022-09-26T05:48:05.576Z,91.55
2022-09-26T05:49:05.649Z,91.55
2022-09-26T05:50:05.641Z,92.02
2022-09-26T05:51:05.673Z,92.45
2022-09-26T05:52:05.707Z,92.64
2022-09-26T05:53:05.739Z,92.64
2022-09-26T05:54:05.771Z,92.69
2022-09-26T05:55:05.807Z,93.26
2022-09-26T05:56:05.840Z,93.55
2022-09-26T05:57:05.870Z,92.88
2022-09-26T05:58:05.904Z,92.88
2022-09-26T05:59:06.001Z,92.69
2022-09-26T06:00:05.976Z,93.26
2022-09-26T06:01:06.035Z,93.07
2022-09-26T06:02:06.112Z,93.70
2022-09-26T06:03:06.063Z,94.12
2022-09-26T06:04:06.097Z,94.41
2022-09-26T06:05:06.129Z,94.41
2022-09-26T06:06:06.165Z,94.79
2022-09-26T06:07:06.194Z,94.31
2022-09-26T06:08:06.228Z,94.70
2022-09-26T06:09:06.413Z,94.41
2022-09-26T06:10:06.294Z,94.79
2022-09-26T06:11:06.324Z,94.03
2022-09-26T06:12:06.361Z,94.41
2022-09-26T06:13:06.391Z,94.03
2022-09-26T06:14:06.430Z,94.12
2022-09-26T06:15:06.459Z,94.31
2022-09-26T06:16:06.581Z,94.03
2022-09-26T06:17:06.520Z,94.03
2022-09-26T06:18:06.553Z,93.55
2022-09-26T06:19:06.690Z,93.65
2022-09-26T06:20:06.619Z,93.84
2022-09-26T06:21:06.657Z,93.46
2022-09-26T06:22:06.689Z,93.65
2022-09-26T06:23:06.714Z,92.97
2022-09-26T06:24:06.750Z,93.17
2022-09-26T06:25:06.784Z,92.69
2022-09-26T06:26:06.812Z,92.79
2022-09-26T06:27:06.843Z,93.07
2022-09-26T06:28:06.880Z,92.79
2022-09-26T06:29:06.998Z,92.60
2022-09-26T06:30:06.958Z,92.69
2022-09-26T06:31:07.059Z,92.50
2022-09-26T06:32:07.116Z,92.41
2022-09-26T06:33:07.041Z,92.55
2022-09-26T06:34:07.078Z,92.64
2022-09-26T06:35:07.107Z,92.55
2022-09-26T06:36:07.142Z,92.26
2022-09-26T06:37:07.171Z,92.16
2022-09-26T06:38:07.217Z,92.64
2022-09-26T06:39:07.246Z,91.97
2022-09-26T06:40:07.268Z,91.40
2022-09-26T06:41:07.577Z,91.69
2022-09-26T06:42:07.424Z,91.40
2022-09-26T06:43:07.366Z,91.40
2022-09-26T06:44:07.404Z,90.83
2022-09-26T06:45:07.431Z,91.02
2022-09-26T06:46:07.467Z,90.64
2022-09-26T06:47:07.555Z,90.73
2022-09-26T06:48:07.547Z,90.92
2022-09-26T06:49:07.572Z,91.02
2022-09-26T06:50:07.597Z,90.25
2022-09-26T06:51:07.626Z,89.59
2022-09-26T06:52:07.663Z,89.97
2022-09-26T06:53:12.709Z,90.35
2022-09-26T06:54:07.725Z,90.25
2022-09-26T06:55:07.763Z,90.16
2022-09-26T06:56:07.792Z,89.78
2022-09-26T06:57:11.648Z,89.78
2022-09-26T06:58:07.856Z,90.25
2022-09-26T06:59:07.889Z,89.97
2022-09-26T07:00:07.924Z,89.73
2022-09-26T07:01:08.093Z,89.44
2022-09-26T07:02:08.217Z,89.92
2022-09-26T07:03:08.022Z,89.25
2022-09-26T07:04:08.052Z,89.06
2022-09-26T07:05:08.085Z,88.77
2022-09-26T07:06:08.118Z,89.15
2022-09-26T07:07:08.152Z,88.96
2022-09-26T07:08:08.183Z,88.96
2022-09-26T07:09:14.553Z,89.06
2022-09-26T07:10:08.248Z,89.15
2022-09-26T07:11:31.110Z,89.25
2022-09-26T07:12:16.070Z,89.44
2022-09-26T07:13:08.408Z,89.44
2022-09-26T07:14:08.378Z,89.82
2022-09-26T07:15:08.415Z,89.73
2022-09-26T07:16:08.485Z,90.01
2022-09-26T07:17:08.491Z,89.44
2022-09-26T07:18:08.510Z,89.82
2022-09-26T07:19:08.563Z,89.73
2022-09-26T07:20:08.579Z,90.11
2022-09-26T07:21:08.616Z,90.20
2022-09-26T07:22:08.641Z,89.73
2022-09-26T07:23:08.702Z,90.30
2022-09-26T07:24:08.711Z,89.53
2022-09-26T07:25:08.743Z,89.63
2022-09-26T07:26:08.781Z,89.53
2022-09-26T07:27:08.807Z,89.44
2022-09-26T07:28:08.838Z,88.77
2022-09-26T07:29:08.945Z,89.15
2022-09-26T07:30:08.907Z,89.25
2022-09-26T07:31:08.999Z,89.34
2022-09-26T07:32:08.972Z,89.25
2022-09-26T07:33:09.004Z,89.44
2022-09-26T07:34:09.078Z,89.34
2022-09-26T07:35:09.069Z,89.10
2022-09-26T07:36:09.103Z,89.20
2022-09-26T07:37:09.135Z,88.81
2022-09-26T07:38:09.165Z,88.81
2022-09-26T07:39:09.238Z,88.53
2022-09-26T07:40:09.232Z,88.24
2022-09-26T07:41:09.267Z,88.05
2022-09-26T07:42:09.301Z,88.24
2022-09-26T07:43:19.546Z,88.43
2022-09-26T07:45:24.748Z,87.86
2022-09-26T07:46:09.529Z,88.05
2022-09-26T07:47:09.464Z,87.86
2022-09-26T07:48:09.496Z,87.57
2022-09-26T07:49:09.534Z,87.09
2022-09-26T07:50:09.560Z,86.90
2022-09-26T07:51:09.597Z,86.80
2022-09-26T07:52:09.641Z,86.71
2022-09-26T07:53:09.663Z,86.71
2022-09-26T07:54:09.783Z,86.23
2022-09-26T07:55:09.735Z,86.52
2022-09-26T07:56:09.762Z,85.94
2022-09-26T07:57:09.801Z,85.18
2022-09-26T07:58:09.827Z,85.28
2022-09-26T07:59:09.862Z,85.13
2022-09-26T08:00:09.896Z,83.89
2022-09-26T08:01:09.953Z,84.55
2022-09-26T08:02:10.168Z,84.46
2022-09-26T08:03:10.054Z,83.60
2022-09-26T08:04:10.060Z,83.22
2022-09-26T08:05:10.061Z,82.64
2022-09-26T08:06:10.092Z,82.54
2022-09-26T08:07:10.126Z,82.35
2022-09-26T08:08:10.162Z,81.97
2022-09-26T08:09:10.240Z,81.97
2022-09-26T08:10:10.225Z,82.54
2022-09-26T08:11:10.261Z,80.82
2022-09-26T08:12:10.293Z,80.63
2022-09-26T08:13:10.329Z,80.35
2022-09-26T08:14:10.363Z,79.58
2022-09-26T08:15:10.396Z,79.58
2022-09-26T08:16:10.488Z,80.06
2022-09-26T08:17:14.090Z,79.68
2022-09-26T08:18:10.492Z,79.58
2022-09-26T08:19:10.528Z,78.72
2022-09-26T08:20:10.559Z,78.05
2022-09-26T08:21:10.594Z,78.19
2022-09-26T08:22:10.647Z,77.51
2022-09-26T08:23:10.665Z,76.42
2022-09-26T08:24:10.697Z,77.04
2022-09-26T08:25:10.730Z,77.51
2022-09-26T08:26:10.771Z,76.27
2022-09-26T08:27:10.794Z,76.75
2022-09-26T08:28:10.828Z,76.46
2022-09-26T08:29:10.861Z,76.37
2022-09-26T08:30:10.893Z,76.84
2022-09-26T08:31:10.988Z,76.75
2022-09-26T08:32:10.963Z,76.65
2022-09-26T08:33:10.999Z,76.46
2022-09-26T08:34:11.027Z,76.84
2022-09-26T08:35:11.064Z,77.36
2022-09-26T08:36:11.101Z,76.89
2022-09-26T08:37:11.140Z,76.50
2022-09-26T08:38:11.166Z,76.50
2022-09-26T08:39:11.200Z,75.93
2022-09-26T08:40:11.295Z,75.93
2022-09-26T08:41:11.265Z,75.26
2022-09-26T08:42:11.298Z,74.52
2022-09-26T08:43:11.341Z,72.67
2022-09-26T08:44:11.371Z,73.38
2022-09-26T08:45:11.401Z,73.76
2022-09-26T08:46:11.497Z,72.99
2022-09-26T08:47:11.467Z,72.23
2022-09-26T08:48:11.501Z,72.52
2022-09-26T08:49:11.544Z,71.75
2022-09-26T08:50:11.579Z,71.66
2022-09-26T08:51:11.602Z,71.94
2022-09-26T08:52:11.635Z,72.23
2022-09-26T08:53:11.672Z,72.03
2022-09-26T08:54:11.755Z,70.50
2022-09-26T08:55:11.737Z,70.98
2022-09-26T08:56:11.771Z,69.93
2022-09-26T08:57:11.813Z,70.03
2022-09-26T08:58:11.839Z,70.31
2022-09-26T08:59:11.874Z,69.58
2022-09-26T09:00:11.908Z,68.62
2022-09-26T09:01:11.974Z,69.29
2022-09-26T09:02:12.077Z,68.52
2022-09-26T09:03:12.042Z,67.47
2022-09-26T09:04:12.059Z,68.43
2022-09-26T09:05:12.083Z,68.24
2022-09-26T09:06:12.110Z,68.27
2022-09-26T09:07:12.146Z,67.41
2022-09-26T09:08:12.181Z,68.33
2022-09-26T09:09:12.221Z,67.60
2022-09-26T09:10:12.249Z,67.50
2022-09-26T09:11:12.284Z,68.05
2022-09-26T09:12:12.336Z,67.57
2022-09-26T09:13:12.352Z,68.33
2022-09-26T09:14:12.473Z,68.05
2022-09-26T09:15:25.157Z,67.57
2022-09-26T09:16:12.510Z,67.69
2022-09-26T09:17:12.489Z,67.69
2022-09-26T09:18:13.824Z,68.18
2022-09-26T09:19:12.558Z,67.02
2022-09-26T09:20:12.592Z,66.83
2022-09-26T09:21:12.630Z,66.64
2022-09-26T09:22:12.660Z,65.97
2022-09-26T09:23:12.697Z,65.43
2022-09-26T09:24:12.769Z,65.52
2022-09-26T09:25:12.766Z,65.33
2022-09-26T09:28:12.869Z,65.17
2022-09-26T09:29:18.693Z,65.33
2022-09-26T09:30:17.276Z,65.17
2022-09-26T09:31:13.000Z,65.08
2022-09-26T09:32:13.009Z,65.17
2022-09-26T09:33:13.049Z,63.83
2022-09-26T09:34:13.098Z,61.24
2022-09-26T09:35:13.113Z,62.48
2022-09-26T09:36:13.153Z,61.91
2022-09-26T09:37:13.212Z,61.52
2022-09-26T09:38:13.215Z,61.52
2022-09-26T09:39:13.253Z,62.77
2022-09-26T09:40:13.304Z,62.77
2022-09-26T09:41:13.323Z,62.45
2022-09-26T09:42:13.358Z,63.22
2022-09-26T09:43:13.391Z,63.42
2022-09-26T09:44:13.553Z,63.12
2022-09-26T09:45:13.464Z,63.22
2022-09-26T09:46:13.529Z,63.70
2022-09-26T09:47:13.533Z,64.37
2022-09-26T09:48:13.565Z,63.03
2022-09-26T09:49:13.603Z,63.51
2022-09-26T09:50:13.638Z,64.37
2022-09-26T09:51:13.670Z,64.47
2022-09-26T09:52:13.705Z,63.89
2022-09-26T09:53:13.748Z,63.29
2022-09-26T09:54:13.832Z,64.34
2022-09-26T09:55:13.811Z,63.86
2022-09-26T09:56:13.848Z,64.72
2022-09-26T09:57:13.885Z,64.43
2022-09-26T09:58:13.917Z,63.99
2022-09-26T09:59:13.951Z,64.95
2022-09-26T10:00:13.985Z,65.81
2022-09-26T10:01:14.022Z,65.65
2022-09-26T10:02:14.067Z,63.64
2022-09-26T10:03:14.175Z,62.42
2022-09-26T10:04:14.288Z,60.69
2022-09-26T10:05:14.162Z,60.60
2022-09-26T10:06:44.238Z,59.83
2022-09-26T10:07:14.239Z,59.34
2022-09-26T10:08:14.268Z,59.92
2022-09-26T10:09:39.096Z,60.02
2022-09-26T10:10:14.338Z,59.54
2022-09-26T10:11:14.372Z,58.96
2022-09-26T10:12:14.409Z,59.54
2022-09-26T10:13:14.444Z,59.92
2022-09-26T10:14:14.603Z,59.44
2022-09-26T10:15:14.513Z,60.02
2022-09-26T10:16:14.614Z,59.92
2022-09-26T10:17:14.583Z,60.11
2022-09-26T10:18:27.740Z,60.47
2022-09-26T10:19:14.655Z,59.80
2022-09-26T10:20:14.758Z,59.99
2022-09-26T10:21:14.728Z,61.05
2022-09-26T10:22:14.759Z,61.33
2022-09-26T10:23:14.797Z,60.47
2022-09-26T10:24:14.945Z,61.43
2022-09-26T10:25:14.880Z,61.11
2022-09-26T10:26:14.901Z,61.11
2022-09-26T10:27:14.939Z,61.11
2022-09-26T10:28:14.972Z,61.98
2022-09-26T10:29:15.008Z,62.74
2022-09-26T10:30:15.096Z,62.93
2022-09-26T10:31:15.135Z,62.26
2022-09-26T10:32:15.113Z,62.55
2022-09-26T10:33:15.151Z,62.26
2022-09-26T10:34:15.356Z,62.84
2022-09-26T10:35:19.397Z,62.93
2022-09-26T10:36:15.259Z,63.89
2022-09-26T10:37:15.293Z,63.99
2022-09-26T10:38:15.325Z,63.79
2022-09-26T10:39:15.371Z,63.22
2022-09-26T10:40:15.612Z,63.22
2022-09-26T10:41:15.442Z,62.16
2022-09-26T10:42:15.465Z,61.75
2022-09-26T10:43:15.502Z,62.33
2022-09-26T10:44:15.727Z,63.09
2022-09-26T10:45:15.573Z,62.81
2022-09-26T10:46:15.682Z,62.90
2022-09-26T10:47:15.642Z,62.81
2022-09-26T10:48:15.681Z,63.09
2022-09-26T10:49:15.718Z,63.19
2022-09-26T10:50:15.747Z,62.33
2022-09-26T10:51:15.804Z,63.09
2022-09-26T10:52:18.639Z,62.81
2022-09-26T10:53:15.853Z,63.09
2022-09-26T10:54:16.057Z,63.38
2022-09-26T10:55:15.923Z,63.00
2022-09-26T10:56:15.963Z,63.57
2022-09-26T10:57:16.232Z,63.38
2022-09-26T10:58:16.028Z,63.57
2022-09-26T10:59:16.062Z,63.67
2022-09-26T11:00:16.097Z,63.83
2022-09-26T11:01:16.150Z,64.31
2022-09-26T11:02:16.166Z,64.89
2022-09-26T11:03:16.303Z,64.34
2022-09-26T11:04:16.336Z,63.16
2022-09-26T11:05:16.275Z,63.83
2022-09-26T11:06:20.523Z,63.73
2022-09-26T11:07:16.344Z,64.79
2022-09-26T11:08:16.376Z,64.72
2022-09-26T11:09:16.413Z,65.39
2022-09-26T11:10:16.455Z,65.11
2022-09-26T11:11:16.484Z,64.63
2022-09-26T11:12:16.522Z,63.48
2022-09-26T11:13:16.591Z,63.38
2022-09-26T11:14:16.588Z,63.86
2022-09-26T11:15:16.620Z,63.35
2022-09-26T11:16:16.723Z,62.49
2022-09-26T11:17:16.691Z,62.39
2022-09-26T11:18:16.726Z,62.96
2022-09-26T11:19:16.759Z,62.96
2022-09-26T11:20:16.796Z,63.16
2022-09-26T11:21:28.367Z,62.20
2022-09-26T11:22:16.866Z,62.77
2022-09-26T11:23:16.898Z,62.20
2022-09-26T11:24:16.937Z,62.20
2022-09-26T11:25:16.970Z,61.82
2022-09-26T11:26:17.016Z,61.91
2022-09-26T11:27:17.046Z,62.49
2022-09-26T11:28:17.074Z,62.01
2022-09-26T11:29:17.337Z,61.91
2022-09-26T11:30:17.144Z,62.49
2022-09-26T11:31:17.213Z,62.39
2022-09-26T11:32:17.217Z,62.10
2022-09-26T11:33:17.246Z,62.52
2022-09-26T11:34:17.283Z,62.62
2022-09-26T11:35:17.320Z,62.71
2022-09-26T11:36:17.442Z,62.33
2022-09-26T11:37:17.459Z,62.52
2022-09-26T11:38:18.252Z,61.75
2022-09-26T11:39:18.757Z,61.94
2022-09-26T11:40:17.655Z,62.04
2022-09-26T11:41:18.256Z,62.16
2022-09-26T11:42:17.596Z,61.78
2022-09-26T11:43:17.694Z,61.98
2022-09-26T11:44:17.714Z,61.59
2022-09-26T11:45:17.722Z,61.21
2022-09-26T11:46:18.377Z,60.95
2022-09-26T11:47:19.255Z,61.49
2022-09-26T11:48:18.767Z,60.08
2022-09-26T11:49:18.757Z,60.82
2022-09-26T11:50:18.768Z,60.47
2022-09-26T11:51:17.961Z,60.53
2022-09-26T11:52:18.760Z,60.53
2022-09-26T11:53:25.155Z,61.21
2022-09-26T11:55:11.112Z,61.40
2022-09-26T11:56:11.143Z,61.88
2022-09-26T11:58:04.315Z,61.11
2022-09-26T11:59:04.338Z,60.72
2022-09-26T12:00:57.580Z,60.72
2022-09-26T12:01:57.583Z,60.53
2022-09-26T12:03:50.847Z,61.27
2022-09-26T12:04:50.785Z,61.69
2022-09-26T12:06:43.957Z,61.30
2022-09-26T12:07:43.987Z,61.59
2022-09-26T12:09:48.052Z,60.35
2022-09-26T12:10:48.078Z,59.41
2022-09-26T12:12:52.132Z,60.18
2022-09-26T12:13:52.159Z,59.61
2022-09-26T12:15:45.211Z,59.25
2022-09-26T12:16:45.181Z,58.00
2022-09-26T12:18:38.351Z,57.65
2022-09-26T12:19:38.381Z,58.03
2022-09-26T12:21:31.551Z,57.93
2022-09-26T12:22:31.579Z,58.54
2022-09-26T12:24:24.785Z,56.81
2022-09-26T12:25:24.789Z,55.85
2022-09-26T12:27:17.935Z,55.46
2022-09-26T12:28:17.970Z,55.37
2022-09-26T12:30:11.144Z,56.40
2022-09-26T12:31:12.508Z,57.26
2022-09-26T12:33:04.360Z,56.98
2022-09-26T12:34:04.376Z,57.75
2022-09-26T12:35:57.352Z,57.36
2022-09-26T12:36:57.384Z,56.56
2022-09-26T12:38:55.772Z,57.21
2022-09-26T12:39:50.577Z,57.97
2022-09-26T12:41:54.671Z,58.26
2022-09-26T12:42:54.689Z,57.59
2022-09-26T12:44:47.687Z,58.36
2022-09-26T12:45:52.474Z,58.84
2022-09-26T12:47:51.782Z,59.61
2022-09-26T12:48:51.833Z,59.70
2022-09-26T12:50:44.979Z,59.61
2022-09-26T12:51:45.010Z,59.89
2022-09-26T12:53:38.177Z,59.48
2022-09-26T12:54:38.208Z,59.77
2022-09-26T12:56:31.368Z,59.86
2022-09-26T12:57:31.398Z,59.48
2022-09-26T12:59:24.600Z,60.15
2022-09-26T13:00:24.596Z,59.96
2022-09-26T13:02:17.633Z,60.53
2022-09-26T13:03:17.694Z,60.35
2022-09-26T13:05:10.779Z,60.35
2022-09-26T13:06:10.805Z,60.63
2022-09-26T13:08:03.971Z,60.72
2022-09-26T13:09:04.002Z,60.25
2022-09-26T13:10:57.203Z,59.38
2022-09-26T13:11:57.195Z,59.09
2022-09-26T13:13:50.358Z,58.87
2022-09-26T13:14:50.386Z,59.45
2022-09-26T13:16:43.551Z,59.74
2022-09-26T13:17:43.575Z,60.12
2022-09-26T13:19:36.739Z,59.93
2022-09-26T13:20:36.773Z,59.83
2022-09-26T13:22:40.886Z,59.74
2022-09-26T13:23:40.878Z,60.22
2022-09-26T13:25:33.859Z,60.31